createdAt,value
2023-03-11T00:02:09.139Z,99.90
2023-03-11T00:07:12.133Z,99.90
2023-03-11T00:12:14.221Z,99.90
2023-03-11T00:17:16.434Z,99.90
2023-03-11T00:22:18.539Z,99.90
2023-03-11T00:27:20.786Z,99.90
2023-03-11T00:32:23.004Z,99.90
2023-03-11T00:37:25.171Z,99.90
2023-03-11T00:42:27.267Z,99.90
2023-03-11T00:47:29.370Z,99.90
2023-03-11T00:52:31.581Z,99.90
2023-03-11T00:57:33.815Z,99.90
2023-03-11T01:02:36.246Z,99.90
2023-03-11T01:07:38.389Z,99.90
2023-03-11T01:12:40.672Z,99.90
2023-03-11T01:17:42.771Z,99.90
2023-03-11T01:22:45.403Z,99.90
2023-03-11T01:27:47.752Z,99.90
2023-03-11T01:32:51.568Z,99.90
2023-03-11T01:37:54.110Z,99.90
2023-03-11T01:42:56.469Z,99.90
2023-03-11T01:47:58.849Z,99.90
2023-03-11T01:53:01.460Z,99.90
2023-03-11T01:58:08.128Z,99.90
2023-03-11T02:03:18.504Z,99.90
2023-03-11T02:08:20.970Z,99.90
2023-03-11T02:13:24.108Z,99.90
2023-03-11T02:18:26.459Z,99.90
2023-03-11T02:23:39.185Z,99.90
2023-03-11T02:28:43.059Z,99.90
2023-03-11T02:33:47.562Z,99.90
2023-03-11T02:38:49.868Z,99.90
2023-03-11T02:43:53.552Z,99.90
2023-03-11T02:48:59.848Z,99.90
2023-03-11T02:54:05.296Z,99.90
2023-03-11T02:59:08.700Z,99.90
2023-03-11T03:04:11.566Z,99.90
2023-03-11T03:09:13.874Z,99.90
2023-03-11T03:14:15.980Z,99.90
2023-03-11T03:19:18.906Z,99.90
2023-03-11T03:24:21.016Z,99.90
2023-03-11T03:29:23.989Z,99.90
2023-03-11T03:34:26.882Z,99.90
2023-03-11T03:39:30.709Z,99.90
2023-03-11T03:44:33.922Z,99.90
2023-03-11T03:49:39.293Z,99.90
2023-03-11T03:54:42.773Z,99.90
2023-03-11T03:59:45.034Z,99.90
2023-03-11T04:04:48.168Z,99.90
2023-03-11T04:09:51.457Z,99.90
2023-03-11T04:14:53.692Z,99.90
2023-03-11T04:19:55.827Z,99.90
2023-03-11T04:24:58.097Z,99.90
2023-03-11T04:30:00.213Z,99.90
2023-03-11T04:35:02.606Z,99.90
2023-03-11T04:40:06.998Z,99.90
2023-03-11T04:45:11.273Z,99.90
2023-03-11T04:50:15.095Z,99.90
2023-03-11T04:55:17.621Z,99.90
2023-03-11T05:00:24.991Z,99.90
2023-03-11T05:05:41.350Z,99.90
2023-03-11T05:10:44.598Z,99.90
2023-03-11T05:15:48.113Z,99.90
2023-03-11T05:20:51.125Z,99.90
2023-03-11T05:25:57.030Z,99.90
2023-03-11T05:30:59.582Z,99.90
2023-03-11T05:36:08.661Z,99.90
2023-03-11T05:41:12.317Z,99.90
2023-03-11T05:46:17.178Z,99.90
2023-03-11T05:51:19.800Z,99.90
2023-03-11T05:56:23.667Z,99.90
2023-03-11T06:01:27.524Z,99.90
2023-03-11T06:06:30.622Z,99.90
2023-03-11T06:11:33.161Z,99.90
2023-03-11T06:16:35.694Z,99.90
2023-03-11T06:21:39.493Z,99.90
2023-03-11T06:26:44.047Z,99.90
2023-03-11T06:31:48.277Z,99.90
2023-03-11T06:36:50.625Z,99.90
2023-03-11T06:41:52.876Z,99.90
2023-03-11T06:46:55.344Z,99.90
2023-03-11T06:51:57.770Z,99.90
2023-03-11T06:57:00.020Z,99.90
2023-03-11T07:02:03.994Z,99.90
2023-03-11T07:07:06.510Z,99.90
2023-03-11T07:12:09.273Z,99.90
2023-03-11T07:17:12.951Z,99.90
2023-03-11T07:22:23.412Z,99.90
2023-03-11T07:27:25.559Z,99.90
2023-03-11T07:32:27.650Z,99.90
2023-03-11T07:37:29.729Z,99.90
2023-03-11T07:42:31.760Z,99.90
2023-03-11T07:47:35.703Z,99.90
2023-03-11T07:52:38.077Z,99.90
2023-03-11T07:57:40.222Z,99.90
2023-03-11T08:02:42.390Z,99.90
2023-03-11T08:07:44.786Z,99.90
2023-03-11T08:12:46.873Z,99.90
2023-03-11T08:17:48.977Z,99.90
2023-03-11T08:22:58.118Z,99.90
2023-03-11T08:28:00.599Z,99.90
2023-03-11T08:33:02.788Z,99.90
2023-03-11T08:38:04.927Z,99.90
2023-03-11T08:43:07.994Z,99.90
2023-03-11T08:48:12.038Z,99.90
2023-03-11T08:53:16.918Z,99.90
2023-03-11T09:10:24.309Z,99.90
2023-03-11T09:15:26.873Z,99.90
2023-03-11T09:20:29.058Z,99.90
2023-03-11T09:25:31.223Z,99.90
2023-03-11T09:30:33.620Z,99.90
2023-03-11T09:35:38.108Z,99.90
2023-03-11T09:40:58.551Z,99.90
2023-03-11T09:46:29.268Z,99.90
2023-03-11T09:51:42.871Z,99.90
2023-03-11T09:56:45.230Z,99.90
2023-03-11T10:01:50.372Z,99.90
2023-03-11T10:06:53.204Z,99.90
2023-03-11T10:11:58.223Z,99.90
2023-03-11T10:17:38.350Z,99.00
2023-03-11T10:22:59.576Z,87.60
2023-03-11T10:28:14.301Z,91.60
2023-03-11T10:33:49.237Z,97.30
2023-03-11T10:38:54.102Z,95.60
2023-03-11T10:43:59.490Z,99.90
2023-03-11T10:49:01.785Z,99.90
2023-03-11T10:54:05.023Z,99.90
2023-03-11T10:59:27.617Z,79.30
2023-03-11T11:04:37.922Z,64.60
2023-03-11T11:09:40.374Z,69.40
2023-03-11T11:14:52.796Z,70.60
2023-03-11T11:19:58.162Z,60.70
2023-03-11T11:25:00.496Z,50.50
2023-03-11T11:30:04.388Z,42.70
2023-03-11T11:35:08.474Z,39.10
2023-03-11T11:40:16.867Z,37.50
2023-03-11T11:45:42.795Z,36.70
2023-03-11T11:50:54.542Z,36.50
2023-03-11T11:55:56.949Z,38.70
2023-03-11T12:01:16.710Z,39.70
2023-03-11T12:06:52.025Z,43.30
2023-03-11T12:12:20.467Z,42.40
2023-03-11T12:17:24.722Z,41.70
2023-03-11T12:22:49.458Z,43.10
2023-03-11T12:27:57.996Z,46.20
2023-03-11T12:33:06.734Z,46.90
2023-03-11T12:38:27.872Z,46.80
2023-03-11T12:43:35.837Z,48.50
2023-03-11T12:49:15.098Z,47.20
2023-03-11T12:54:20.449Z,50.40
2023-03-11T12:59:48.102Z,52.80
2023-03-11T13:04:54.957Z,53.00
2023-03-11T13:10:36.412Z,52.70
2023-03-11T13:15:39.530Z,53.30
2023-03-11T13:20:41.652Z,52.90
2023-03-11T13:26:07.471Z,55.70
2023-03-11T13:31:55.834Z,57.20
2023-03-11T13:37:17.549Z,57.50
2023-03-11T13:42:35.715Z,61.50
2023-03-11T13:47:43.173Z,64.40
2023-03-11T13:52:49.062Z,64.40
2023-03-11T13:57:53.820Z,71.10
2023-03-11T14:03:12.914Z,75.80
2023-03-11T14:08:29.861Z,77.70
2023-03-11T14:13:38.362Z,73.50
2023-03-11T14:18:49.602Z,72.80
2023-03-11T14:23:54.494Z,65.60
2023-03-11T14:28:59.720Z,69.90
2023-03-11T14:34:04.899Z,73.40
2023-03-11T14:39:26.067Z,71.80
2023-03-11T14:44:30.731Z,73.70
2023-03-11T14:49:33.232Z,72.00
2023-03-11T14:54:37.766Z,69.20
2023-03-11T14:59:41.777Z,63.10
2023-03-11T15:04:44.417Z,69.50
2023-03-11T15:09:47.897Z,68.10
2023-03-11T15:14:51.474Z,65.00
2023-03-11T15:19:53.948Z,66.80
2023-03-11T15:25:01.582Z,71.90
2023-03-11T15:30:17.677Z,82.00
2023-03-11T15:35:31.156Z,93.80
2023-03-11T15:40:44.933Z,99.90
2023-03-11T15:45:49.066Z,99.90
2023-03-11T15:50:56.820Z,99.90
2023-03-11T15:56:08.161Z,99.90
2023-03-11T16:01:10.796Z,99.90
2023-03-11T16:06:12.968Z,99.90
2023-03-11T16:11:16.515Z,99.90
2023-03-11T16:16:20.048Z,99.90
2023-03-11T16:21:25.218Z,99.90
2023-03-11T16:26:27.387Z,99.90
2023-03-11T16:31:30.225Z,99.90
2023-03-11T16:36:32.561Z,99.90
2023-03-11T16:41:42.700Z,99.90
2023-03-11T16:46:44.902Z,99.90
2023-03-11T16:51:47.169Z,99.90
2023-03-11T16:56:49.472Z,99.90
2023-03-11T17:01:51.618Z,99.90
2023-03-11T17:06:54.473Z,99.90
2023-03-11T17:11:56.620Z,99.90
2023-03-11T17:16:59.492Z,99.90
2023-03-11T17:22:01.636Z,99.90
2023-03-11T17:27:04.434Z,99.90
2023-03-11T17:32:07.134Z,99.90
2023-03-11T17:37:09.654Z,99.90
2023-03-11T17:42:12.009Z,99.90
2023-03-11T17:47:14.314Z,99.90
2023-03-11T17:52:16.574Z,99.90
2023-03-11T17:57:20.830Z,99.90
2023-03-11T18:02:23.081Z,99.90
2023-03-11T18:07:26.077Z,99.90
2023-03-11T18:12:28.208Z,99.90
2023-03-11T18:17:30.771Z,99.90
2023-03-11T18:22:35.362Z,99.90
2023-03-11T18:27:38.241Z,99.90
2023-03-11T18:32:40.827Z,99.90
2023-03-11T18:37:43.017Z,99.90
2023-03-11T18:42:45.217Z,99.90
2023-03-11T18:47:47.570Z,99.90
2023-03-11T18:52:52.632Z,99.90
2023-03-11T18:57:54.768Z,99.90
2023-03-11T19:02:56.887Z,99.90
2023-03-11T19:07:59.164Z,99.90
2023-03-11T19:13:01.413Z,99.90
2023-03-11T19:18:07.053Z,99.90
2023-03-11T19:23:09.696Z,99.90
2023-03-11T19:28:11.859Z,99.90
2023-03-11T19:33:13.946Z,99.90
2023-03-11T19:38:16.192Z,99.90
2023-03-11T19:43:19.468Z,99.90
2023-03-11T19:48:21.755Z,99.90
2023-03-11T19:53:24.513Z,99.90
2023-03-11T19:58:30.486Z,99.90
2023-03-11T20:03:33.116Z,99.90
2023-03-11T20:08:37.365Z,99.90
2023-03-11T20:13:42.712Z,99.90
2023-03-11T20:18:46.081Z,99.90
2023-03-11T20:23:49.119Z,99.90
2023-03-11T20:28:55.550Z,99.90
2023-03-11T20:33:58.424Z,99.90
2023-03-11T20:39:00.700Z,99.90
2023-03-11T20:44:03.838Z,99.90
2023-03-11T20:49:06.885Z,99.90
2023-03-11T20:54:09.527Z,99.90
2023-03-11T20:59:14.153Z,99.90
2023-03-11T21:04:16.878Z,99.90
2023-03-11T21:09:19.826Z,99.90
2023-03-11T21:14:22.037Z,99.90
2023-03-11T21:19:24.573Z,99.90
2023-03-11T21:24:26.935Z,99.90
2023-03-11T21:29:30.783Z,99.90
2023-03-11T21:34:33.234Z,99.90
2023-03-11T21:39:35.537Z,99.90
2023-03-11T21:44:37.847Z,99.90
2023-03-11T21:49:40.131Z,99.90
2023-03-11T21:54:42.508Z,99.90
2023-03-11T21:59:44.878Z,99.90
2023-03-11T22:04:47.645Z,99.90
2023-03-11T22:09:52.138Z,99.90
2023-03-11T22:14:54.857Z,99.90
2023-03-11T22:19:57.246Z,99.90
2023-03-11T22:24:59.670Z,99.90
2023-03-11T22:30:02.006Z,99.90
2023-03-11T22:35:04.306Z,99.90
2023-03-11T22:40:10.411Z,99.90
2023-03-11T22:45:13.206Z,99.90
2023-03-11T22:50:15.818Z,99.90
2023-03-11T22:55:18.573Z,99.90
2023-03-11T23:00:23.291Z,99.90
2023-03-11T23:05:25.430Z,99.90
2023-03-11T23:10:27.676Z,99.90
2023-03-11T23:15:30.003Z,99.90
2023-03-11T23:20:35.770Z,99.90
2023-03-11T23:25:39.322Z,99.90
2023-03-11T23:30:41.763Z,99.90
2023-03-11T23:35:43.974Z,99.90
2023-03-11T23:40:46.089Z,99.90
2023-03-11T23:45:48.512Z,99.90
2023-03-11T23:50:51.690Z,99.90
2023-03-11T23:55:54.683Z,99.90
